createdAt,value
2023-05-05T00:01:11.721Z,100667.52
2023-05-05T00:06:18.626Z,100668.79
2023-05-05T00:11:26.099Z,100666.44
2023-05-05T00:16:33.195Z,100661.88
2023-05-05T00:21:40.210Z,100664.96
2023-05-05T00:26:48.272Z,100660.69
2023-05-05T00:31:55.479Z,100661.38
2023-05-05T00:37:02.580Z,100656.63
2023-05-05T00:42:09.812Z,100648.67
2023-05-05T00:47:17.417Z,100644.64
2023-05-05T00:52:24.507Z,100652.19
2023-05-05T00:57:32.580Z,100649.48
2023-05-05T01:02:39.873Z,100648.60
2023-05-05T01:08:02.902Z,100645.58
2023-05-05T01:13:22.484Z,100641.51
2023-05-05T01:18:37.672Z,100636.92
2023-05-05T01:24:07.835Z,100633.01
2023-05-05T01:29:38.716Z,100632.50
2023-05-05T01:34:54.830Z,100628.91
2023-05-05T01:40:06.412Z,100623.09
2023-05-05T01:45:13.080Z,100628.55
2023-05-05T01:50:21.955Z,100623.75
2023-05-05T01:55:31.056Z,100616.06
2023-05-05T02:00:39.307Z,100617.60
2023-05-05T02:05:48.746Z,100621.88
2023-05-05T02:10:57.215Z,100623.28
2023-05-05T02:16:08.498Z,100620.06
2023-05-05T02:21:18.092Z,100619.09
2023-05-05T02:26:26.217Z,100616.08
2023-05-05T02:31:35.807Z,100620.55
2023-05-05T02:36:45.686Z,100620.23
2023-05-05T02:41:55.361Z,100617.03
2023-05-05T02:47:07.919Z,100618.77
2023-05-05T02:52:15.502Z,100619.14
2023-05-05T02:57:33.043Z,100618.83
2023-05-05T03:02:50.075Z,100619.04
2023-05-05T03:08:04.494Z,100623.66
2023-05-05T03:13:13.431Z,100630.16
2023-05-05T03:18:26.362Z,100631.20
2023-05-05T03:23:38.991Z,100632.40
2023-05-05T03:28:49.821Z,100638.05
2023-05-05T03:34:00.937Z,100637.20
2023-05-05T03:39:13.154Z,100641.46
2023-05-05T03:44:20.114Z,100642.16
2023-05-05T03:49:27.143Z,100634.66
2023-05-05T03:54:34.576Z,100637.91
2023-05-05T03:59:41.756Z,100639.09
2023-05-05T04:04:49.654Z,100634.96
2023-05-05T04:09:56.670Z,100637.84
2023-05-05T04:15:04.200Z,100641.58
2023-05-05T04:20:12.850Z,100650.27
2023-05-05T04:25:20.549Z,100648.38
2023-05-05T04:30:28.753Z,100646.64
2023-05-05T04:35:36.114Z,100646.78
2023-05-05T04:40:43.368Z,100650.52
2023-05-05T04:45:56.472Z,100658.00
2023-05-05T04:51:08.426Z,100658.42
2023-05-05T04:56:16.308Z,100660.83
2023-05-05T05:01:24.028Z,100662.67
2023-05-05T05:06:46.214Z,100666.30
2023-05-05T05:11:53.777Z,100660.42
2023-05-05T05:17:00.982Z,100661.16
2023-05-05T05:22:07.986Z,100658.91
2023-05-05T05:27:17.737Z,100660.47
2023-05-05T05:32:25.650Z,100664.08
2023-05-05T05:37:33.414Z,100670.15
2023-05-05T05:42:41.997Z,100677.73
2023-05-05T05:47:49.381Z,100687.33
2023-05-05T05:52:56.717Z,100686.71
2023-05-05T05:58:04.569Z,100687.83
2023-05-05T06:03:12.164Z,100680.83
2023-05-05T06:08:19.835Z,100687.48
2023-05-05T06:13:30.729Z,100690.32
2023-05-05T06:18:38.273Z,100693.51
2023-05-05T06:23:45.256Z,100692.80
2023-05-05T06:28:52.357Z,100688.48
2023-05-05T06:33:59.384Z,100692.07
2023-05-05T06:39:06.414Z,100687.59
2023-05-05T06:44:13.573Z,100688.77
2023-05-05T06:49:20.419Z,100693.60
2023-05-05T06:54:27.413Z,100695.08
2023-05-05T06:59:34.307Z,100692.94
2023-05-05T07:04:41.556Z,100692.36
2023-05-05T07:09:48.601Z,100691.35
2023-05-05T07:14:56.513Z,100688.06
2023-05-05T07:20:03.842Z,100688.64
2023-05-05T07:25:12.042Z,100691.85
2023-05-05T07:30:19.639Z,100691.58
2023-05-05T07:35:27.858Z,100688.25
2023-05-05T07:40:34.864Z,100685.35
2023-05-05T07:45:41.922Z,100684.08
2023-05-05T07:50:49.126Z,100677.75
2023-05-05T07:55:56.154Z,100677.58
2023-05-05T08:01:04.821Z,100675.31
2023-05-05T08:06:12.828Z,100675.48
2023-05-05T08:11:20.427Z,100667.48
2023-05-05T08:16:27.909Z,100670.39
2023-05-05T08:21:34.878Z,100668.48
2023-05-05T08:26:41.933Z,100672.80
2023-05-05T08:31:49.021Z,100672.75
2023-05-05T08:36:56.654Z,100670.84
2023-05-05T08:42:04.084Z,100667.16
2023-05-05T08:47:16.305Z,100670.54
2023-05-05T08:52:29.911Z,100667.32
2023-05-05T08:57:42.597Z,100662.16
2023-05-05T09:02:50.484Z,100662.39
2023-05-05T09:07:57.916Z,100656.08
2023-05-05T09:13:06.989Z,100655.17
2023-05-05T09:18:14.574Z,100651.10
2023-05-05T09:23:22.425Z,100650.98
2023-05-05T09:28:29.439Z,100648.01
2023-05-05T09:33:36.432Z,100637.08
2023-05-05T09:38:43.447Z,100641.23
2023-05-05T09:43:54.176Z,100639.20
2023-05-05T09:49:15.566Z,100636.66
2023-05-05T09:54:27.487Z,100634.80
2023-05-05T09:59:34.849Z,100637.18
2023-05-05T10:04:42.169Z,100639.22
2023-05-05T10:09:49.248Z,100629.92
2023-05-05T10:14:58.894Z,100626.33
2023-05-05T10:20:08.753Z,100626.51
2023-05-05T10:25:22.569Z,100626.47
2023-05-05T10:30:33.917Z,100628.48
2023-05-05T10:35:45.313Z,100620.72
2023-05-05T10:40:53.403Z,100614.02
2023-05-05T10:46:01.120Z,100605.35
2023-05-05T10:51:35.205Z,100606.19
2023-05-05T10:56:47.027Z,100599.98
2023-05-05T11:01:54.110Z,100601.48
2023-05-05T11:07:26.080Z,100594.67
2023-05-05T11:12:36.047Z,100593.38
2023-05-05T11:17:51.296Z,100596.23
2023-05-05T11:23:24.945Z,100587.05
2023-05-05T11:28:33.192Z,100580.99
2023-05-05T11:33:41.035Z,100570.54
2023-05-05T11:38:57.739Z,100562.14
2023-05-05T11:44:15.449Z,100557.14
2023-05-05T11:49:31.370Z,100555.11
2023-05-05T11:54:40.559Z,100552.94
2023-05-05T11:59:56.727Z,100551.23
2023-05-05T12:05:03.973Z,100546.14
2023-05-05T12:10:12.339Z,100540.86
2023-05-05T12:15:28.589Z,100539.88
2023-05-05T12:20:36.808Z,100537.02
2023-05-05T12:25:43.737Z,100529.17
2023-05-05T12:30:59.941Z,100524.60
2023-05-05T12:36:08.351Z,100522.48
2023-05-05T12:41:18.704Z,100527.92
2023-05-05T12:46:26.547Z,100525.49
2023-05-05T12:51:34.769Z,100523.45
2023-05-05T12:56:40.761Z,100514.08
2023-05-05T13:01:55.539Z,100514.02
2023-05-05T13:07:13.677Z,100508.48
2023-05-05T13:12:23.204Z,100501.52
2023-05-05T13:17:32.772Z,100492.73
2023-05-05T13:22:41.714Z,100490.39
2023-05-05T13:27:48.789Z,100488.88
2023-05-05T13:32:55.847Z,100485.80
2023-05-05T13:38:03.096Z,100483.40
2023-05-05T13:43:08.648Z,100477.16
2023-05-05T13:48:15.594Z,100476.20
2023-05-05T13:53:22.640Z,100468.39
2023-05-05T13:58:29.721Z,100458.79
2023-05-05T14:03:35.099Z,100455.73
2023-05-05T14:08:42.110Z,100449.18
2023-05-05T14:13:49.789Z,100444.61
2023-05-05T14:18:59.380Z,100443.27
2023-05-05T14:29:44.556Z,100434.84
2023-05-05T14:34:51.421Z,100433.80
2023-05-05T14:39:58.548Z,100433.29
2023-05-05T14:45:06.726Z,100433.80
2023-05-05T14:50:14.283Z,100431.72
2023-05-05T14:55:21.420Z,100428.75
2023-05-05T15:00:28.570Z,100425.70
2023-05-05T15:05:35.731Z,100423.28
2023-05-05T15:10:42.648Z,100427.46
2023-05-05T15:15:50.181Z,100420.52
2023-05-05T15:20:57.209Z,100415.31
2023-05-05T15:26:04.671Z,100410.84
2023-05-05T15:31:10.477Z,100403.36
2023-05-05T15:36:22.438Z,100399.55
2023-05-05T15:41:30.349Z,100408.09
2023-05-05T15:46:37.570Z,100403.41
2023-05-05T15:51:44.530Z,100405.41
2023-05-05T15:56:51.561Z,100404.76
2023-05-05T16:01:58.633Z,100400.06
2023-05-05T16:07:05.615Z,100398.71
2023-05-05T16:12:12.724Z,100395.65
2023-05-05T16:17:21.640Z,100392.77
2023-05-05T16:22:29.149Z,100386.73
2023-05-05T16:27:38.918Z,100384.29
2023-05-05T16:32:47.484Z,100382.21
2023-05-05T16:37:54.571Z,100379.88
2023-05-05T16:43:01.593Z,100374.64
2023-05-05T16:48:09.441Z,100373.66
2023-05-05T16:53:16.427Z,100376.05
2023-05-05T16:58:23.935Z,100373.79
2023-05-05T17:03:30.958Z,100375.98
2023-05-05T17:08:37.978Z,100380.52
2023-05-05T17:13:44.912Z,100378.15
2023-05-05T17:18:51.811Z,100384.34
2023-05-05T17:23:58.911Z,100389.66
2023-05-05T17:29:05.907Z,100396.89
2023-05-05T17:34:12.805Z,100398.35
2023-05-05T17:39:19.784Z,100404.41
2023-05-05T17:44:27.009Z,100410.59
2023-05-05T17:49:34.414Z,100410.45
2023-05-05T17:54:42.682Z,100411.84
2023-05-05T17:59:50.429Z,100411.81
2023-05-05T18:04:57.375Z,100415.59
2023-05-05T18:10:04.482Z,100423.27
2023-05-05T18:15:13.136Z,100428.70
2023-05-05T18:20:20.485Z,100434.64
2023-05-05T18:25:27.602Z,100444.81
2023-05-05T18:30:35.777Z,100450.71
2023-05-05T18:35:42.838Z,100456.15
2023-05-05T18:40:50.306Z,100464.64
2023-05-05T18:45:57.212Z,100463.30
2023-05-05T18:51:07.613Z,100464.66
2023-05-05T18:56:14.656Z,100473.61
2023-05-05T19:01:21.652Z,100481.38
2023-05-05T19:06:28.720Z,100479.79
2023-05-05T19:11:35.501Z,100478.41
2023-05-05T19:16:42.553Z,100476.93
2023-05-05T19:21:49.444Z,100482.80
2023-05-05T19:26:56.393Z,100480.86
2023-05-05T19:32:03.374Z,100478.00
2023-05-05T19:37:10.475Z,100473.95
2023-05-05T19:42:17.545Z,100471.81
2023-05-05T19:47:24.406Z,100468.55
2023-05-05T19:52:31.480Z,100468.28
2023-05-05T19:57:38.864Z,100474.14
2023-05-05T20:02:45.885Z,100474.32
2023-05-05T20:07:53.243Z,100475.98
2023-05-05T20:13:03.580Z,100474.24
2023-05-05T20:18:11.806Z,100475.61
2023-05-05T20:23:18.655Z,100468.86
2023-05-05T20:28:25.906Z,100468.04
2023-05-05T20:33:33.022Z,100457.91
2023-05-05T20:38:40.126Z,100451.92
2023-05-05T20:43:47.199Z,100446.20
2023-05-05T20:48:54.298Z,100443.98
2023-05-05T20:54:01.359Z,100443.35
2023-05-05T20:59:08.461Z,100441.17
2023-05-05T21:04:15.446Z,100434.52
2023-05-05T21:09:22.551Z,100432.65
2023-05-05T21:14:30.317Z,100431.48
2023-05-05T21:19:37.344Z,100432.95
2023-05-05T21:24:44.446Z,100435.58
2023-05-05T21:29:52.923Z,100429.75
2023-05-05T21:35:05.612Z,100427.66
2023-05-05T21:40:16.429Z,100419.83
2023-05-05T21:45:23.817Z,100416.61
2023-05-05T21:50:31.122Z,100425.79
2023-05-05T21:55:38.007Z,100424.14
2023-05-05T22:00:45.177Z,100429.68
2023-05-05T22:05:52.431Z,100428.48
2023-05-05T22:10:59.298Z,100423.96
2023-05-05T22:16:07.273Z,100432.03
2023-05-05T22:21:14.299Z,100437.39
2023-05-05T22:26:21.933Z,100423.77
2023-05-05T22:31:29.524Z,100419.68
2023-05-05T22:36:36.560Z,100423.97
2023-05-05T22:41:43.810Z,100417.98
2023-05-05T22:46:51.011Z,100405.08
2023-05-05T22:51:58.513Z,100397.72
2023-05-05T22:57:05.403Z,100396.61
2023-05-05T23:02:12.510Z,100397.80
2023-05-05T23:07:19.460Z,100402.96
2023-05-05T23:12:26.520Z,100411.34
2023-05-05T23:17:33.970Z,100411.59
2023-05-05T23:22:41.134Z,100412.64
2023-05-05T23:27:48.195Z,100404.89
2023-05-05T23:32:57.311Z,100395.95
2023-05-05T23:38:05.305Z,100392.85
2023-05-05T23:43:12.921Z,100383.16
2023-05-05T23:48:19.855Z,100378.06
2023-05-05T23:53:26.723Z,100370.59
2023-05-05T23:58:33.761Z,100363.33
